Arta, Spain
Current Conditions -  °F | °C
As of 9:00 PM on Sunday 25 Jan 2015 (Local Time) from LEPA Reporting Station
Few Clouds Few Clouds  
Wind Chill: 45°   Ceiling: Unl
Heat Index: 48°   Visibility: 6mi
Dew Point: 32°   Wind: 8mph
Humidity: 54%   Direction: 360°N
Pressure: 30.21"   Gusts: NA
Location:  39.69°N, 3.35°E
Report Text: LEPA 252000Z 36007KT 330V040 9999 FEW050 09/M00 Q1023 NOSIG
Loading
Personal Weather Stations






























Interactive Weather Map New forecast layout! Learn more

10-Day Weather Forecast

Advertisements
Track Severe Weather on mobile